Time;durP1;ratioP1;P1;durP2;ratioP2;P2;SDS_P1;SDS_P2;PMS_P1;PMS_P2;Temp;Humidity;BMP_temperature;BMP_pressure;BME280_temperature;BME280_humidity;BME280_pressure;Samples;Min_cycle;Max_cycle;Signal;HPM_P1;HPM_P2
2021/04/28 00:02:17;;;;;;;5.57;4.55;;;6.40;99.90;;;;;;5053800;28;20181;-68
2021/04/28 00:04:44;;;;;;;7.00;4.15;;;6.30;99.90;;;;;;5054046;28;20200;-68
2021/04/28 00:07:12;;;;;;;3.88;3.47;;;6.30;99.90;;;;;;5053499;28;20223;-67
2021/04/28 00:09:39;;;;;;;5.20;4.18;;;6.30;99.90;;;;;;5053442;28;20267;-69
2021/04/28 00:12:07;;;;;;;5.65;4.50;;;6.30;99.90;;;;;;5053005;28;20256;-67
2021/04/28 00:14:36;;;;;;;5.05;3.60;;;6.30;99.90;;;;;;5053780;28;20173;-68
2021/04/28 00:17:03;;;;;;;4.30;3.60;;;6.30;99.90;;;;;;5053587;28;20200;-68
2021/04/28 00:19:32;;;;;;;5.00;4.50;;;6.30;99.90;;;;;;5053784;28;20274;-69
2021/04/28 00:21:59;;;;;;;5.03;4.57;;;6.30;99.90;;;;;;5053695;28;20181;-68
2021/04/28 00:24:26;;;;;;;5.82;4.00;;;6.30;99.90;;;;;;5053746;28;20185;-69
2021/04/28 00:26:53;;;;;;;6.10;4.28;;;6.30;99.90;;;;;;5052205;28;20203;-70
2021/04/28 00:29:21;;;;;;;3.35;3.05;;;6.30;99.90;;;;;;5053324;28;20244;-67
2021/04/28 00:31:51;;;;;;;6.65;4.90;;;6.30;99.90;;;;;;5053735;28;20208;-67
2021/04/28 00:34:18;;;;;;;3.88;3.53;;;6.20;99.90;;;;;;5068786;22;20193;-71
2021/04/28 00:36:46;;;;;;;8.00;4.10;;;6.20;99.90;;;;;;5063453;28;20200;-71
2021/04/28 00:39:13;;;;;;;6.22;4.32;;;6.10;99.90;;;;;;5072394;28;20294;-72
2021/04/28 00:41:42;;;;;;;5.90;3.55;;;6.10;99.90;;;;;;5072534;28;20187;-71
2021/04/28 00:44:10;;;;;;;7.50;4.40;;;6.10;99.90;;;;;;5054158;28;20279;-70
2021/04/28 00:46:37;;;;;;;7.03;4.45;;;6.10;99.90;;;;;;5072578;28;20188;-70
2021/04/28 00:49:05;;;;;;;5.72;3.75;;;6.10;99.90;;;;;;5054575;28;20310;-71
2021/04/28 00:51:33;;;;;;;4.30;3.92;;;6.00;99.90;;;;;;5072398;28;20259;-70
2021/04/28 00:54:00;;;;;;;3.85;3.28;;;6.00;99.90;;;;;;5054196;28;20202;-69
2021/04/28 00:56:28;;;;;;;9.23;5.65;;;5.90;99.90;;;;;;5053817;28;20196;-71
2021/04/28 00:58:55;;;;;;;4.85;4.40;;;6.00;99.90;;;;;;5054342;28;20208;-71
2021/04/28 01:01:23;;;;;;;4.60;3.10;;;6.00;99.90;;;;;;5053970;28;20195;-71
2021/04/28 01:03:50;;;;;;;6.03;5.07;;;5.90;99.90;;;;;;5054095;28;20191;-72
2021/04/28 01:06:18;;;;;;;4.80;3.90;;;5.90;99.90;;;;;;5054151;28;20730;-70
2021/04/28 01:08:46;;;;;;;6.13;3.40;;;5.90;99.90;;;;;;5072332;28;20806;-70
2021/04/28 01:11:15;;;;;;;5.22;4.32;;;5.90;99.90;;;;;;5054851;28;20177;-70
2021/04/28 01:13:57;;;;;;;6.00;4.35;;;5.80;99.90;;;;;;5055512;28;20196;-72
2021/04/28 01:16:25;;;;;;;5.97;4.82;;;5.80;99.90;;;;;;5056505;28;20184;-69
2021/04/28 01:18:54;;;;;;;6.85;3.97;;;5.80;99.90;;;;;;5055830;28;20696;-70
2021/04/28 01:21:23;;;;;;;3.90;3.00;;;5.80;99.90;;;;;;5077873;28;20192;-71
2021/04/28 01:23:51;;;;;;;7.15;4.63;;;5.70;99.90;;;;;;5080278;28;20176;-71
2021/04/28 01:26:19;;;;;;;5.70;3.83;;;5.70;99.90;;;;;;5078869;28;20184;-70
2021/04/28 01:28:49;;;;;;;6.13;4.57;;;5.60;99.90;;;;;;5075413;28;20704;-70
2021/04/28 01:31:18;;;;;;;4.55;3.50;;;5.50;99.90;;;;;;5052031;28;20193;-70
2021/04/28 01:33:48;;;;;;;5.10;4.18;;;5.50;99.90;;;;;;5060061;28;20196;-71
2021/04/28 01:36:19;;;;;;;5.72;3.25;;;5.40;99.90;;;;;;5042037;28;20201;-71
2021/04/28 01:38:50;;;;;;;6.70;4.85;;;5.30;99.90;;;;;;5041504;28;20208;-70
2021/04/28 01:41:23;;;;;;;9.38;4.30;;;5.30;99.90;;;;;;5044133;28;20196;-71
2021/04/28 01:43:54;;;;;;;7.10;5.10;;;5.20;99.90;;;;;;5060115;28;20184;-71
2021/04/28 01:46:25;;;;;;;7.47;4.10;;;5.20;99.90;;;;;;5061559;28;20193;-72
2021/04/28 01:48:53;;;;;;;8.55;4.35;;;5.10;99.90;;;;;;5042853;28;20649;-72
2021/04/28 01:51:22;;;;;;;5.45;4.45;;;5.10;99.90;;;;;;5049774;28;20516;-71
2021/04/28 01:53:50;;;;;;;6.18;4.53;;;5.10;99.90;;;;;;5030351;28;20205;-72
2021/04/28 01:56:18;;;;;;;6.25;4.65;;;5.00;99.90;;;;;;5054258;28;20188;-71
2021/04/28 01:59:07;;;;;;;8.68;4.75;;;5.00;99.90;;;;;;5052030;28;20258;-70
2021/04/28 02:01:53;;;;;;;6.60;5.40;;;4.90;99.90;;;;;;5039870;28;20199;-69
2021/04/28 02:04:23;;;;;;;7.55;5.10;;;4.90;99.90;;;;;;5060431;28;20180;-70
2021/04/28 02:06:53;;;;;;;6.82;4.13;;;4.90;99.90;;;;;;5061357;28;20210;-70
2021/04/28 02:09:20;;;;;;;3.60;3.30;;;4.80;99.90;;;;;;5060703;28;20696;-70
2021/04/28 02:11:48;;;;;;;5.97;4.07;;;4.70;99.90;;;;;;5041451;28;20197;-70
2021/04/28 02:14:20;;;;;;;5.32;3.88;;;4.70;99.90;;;;;;5041994;28;20310;-72
2021/04/28 02:17:01;;;;;;;5.90;3.90;;;4.60;99.90;;;;;;5043206;28;20215;-70
2021/04/28 02:19:34;;;;;;;6.45;4.13;;;4.60;99.90;;;;;;5039344;28;20240;-70
2021/04/28 02:22:03;;;;;;;10.18;4.30;;;4.50;99.90;;;;;;5036304;28;20298;-70
2021/04/28 02:24:52;;;;;;;5.57;4.15;;;4.40;99.90;;;;;;5036259;28;20199;-71
2021/04/28 02:27:26;;;;;;;9.60;5.75;;;4.30;99.90;;;;;;5036415;28;20188;-71
2021/04/28 02:29:56;;;;;;;8.20;6.28;;;4.30;99.90;;;;;;5036311;28;20219;-71
2021/04/28 02:32:26;;;;;;;5.35;4.20;;;4.20;99.90;;;;;;5038350;28;20184;-70
2021/04/28 02:35:27;;;;;;;12.63;5.07;;;4.20;99.90;;;;;;5029571;28;20205;-70
2021/04/28 02:38:16;;;;;;;8.48;4.40;;;4.20;99.90;;;;;;5046655;28;20659;-71
2021/04/28 02:41:04;;;;;;;9.50;5.97;;;4.20;99.90;;;;;;5045227;28;20661;-70
2021/04/28 02:43:35;;;;;;;7.55;5.43;;;4.10;99.90;;;;;;5041704;28;20189;-71
2021/04/28 02:46:11;;;;;;;5.40;4.90;;;4.10;99.90;;;;;;5060237;28;20165;-71
2021/04/28 02:48:43;;;;;;;8.07;4.25;;;4.10;99.90;;;;;;5058401;28;20614;-71
2021/04/28 02:51:47;;;;;;;9.07;6.75;;;4.00;99.90;;;;;;5035545;28;20196;-70
2021/04/28 02:54:36;;;;;;;4.53;4.13;;;4.00;99.90;;;;;;5057511;28;20192;-70
2021/04/28 02:57:06;;;;;;;9.45;6.18;;;4.00;99.90;;;;;;5039701;28;20196;-70
2021/04/28 02:59:33;;;;;;;4.85;4.38;;;4.00;99.90;;;;;;5039442;28;20246;-70
2021/04/28 03:02:03;;;;;;;7.22;5.00;;;3.90;99.90;;;;;;5057460;28;20180;-70
2021/04/28 03:04:31;;;;;;;6.90;4.30;;;4.00;99.90;;;;;;5039448;28;20204;-71
2021/04/28 03:07:24;;;;;;;7.55;5.53;;;3.90;99.90;;;;;;5023106;28;20352;-71
2021/04/28 03:09:52;;;;;;;7.30;5.90;;;3.90;99.90;;;;;;5039287;28;20282;-71
2021/04/28 03:12:22;;;;;;;10.07;5.65;;;3.80;99.90;;;;;;5039072;28;20189;-71
2021/04/28 03:14:53;;;;;;;4.38;3.72;;;3.80;99.90;;;;;;5057857;28;20185;-71
2021/04/28 03:17:23;;;;;;;8.45;5.43;;;3.80;99.90;;;;;;5039815;28;20207;-71
2021/04/28 03:19:57;;;;;;;6.90;4.60;;;3.80;99.90;;;;;;5057745;28;20632;-71
2021/04/28 03:22:28;;;;;;;6.75;5.88;;;3.80;99.90;;;;;;5039262;28;20204;-72
2021/04/28 03:24:56;;;;;;;9.40;6.35;;;3.80;99.90;;;;;;5039475;28;20184;-71
2021/04/28 03:27:25;;;;;;;8.82;5.47;;;3.70;99.90;;;;;;5057917;28;20193;-71
2021/04/28 03:29:55;;;;;;;4.85;4.35;;;3.70;99.90;;;;;;5057212;28;20189;-72
2021/04/28 03:32:24;;;;;;;8.00;6.75;;;3.70;99.90;;;;;;5058174;28;20207;-71
2021/04/28 03:35:06;;;;;;;5.50;4.97;;;3.70;99.90;;;;;;5039619;28;20197;-71
2021/04/28 03:37:34;;;;;;;8.85;5.00;;;3.70;99.90;;;;;;5039141;28;20590;-71
2021/04/28 03:40:01;;;;;;;7.50;5.95;;;3.70;99.90;;;;;;5039353;28;20181;-71
2021/04/28 03:42:29;;;;;;;8.60;5.95;;;3.80;99.90;;;;;;5039130;28;20557;-72
2021/04/28 03:44:57;;;;;;;7.53;5.70;;;3.80;99.90;;;;;;5039254;28;20484;-71
2021/04/28 03:47:26;;;;;;;7.60;5.43;;;3.80;99.90;;;;;;5038085;28;20193;-71
2021/04/28 03:49:54;;;;;;;9.30;4.60;;;3.80;99.90;;;;;;5056512;28;20320;-71
2021/04/28 03:52:21;;;;;;;7.13;3.97;;;3.80;99.90;;;;;;5039936;28;20283;-70
2021/04/28 03:55:15;;;;;;;6.78;4.60;;;3.80;99.90;;;;;;5020005;28;20212;-72
2021/04/28 03:57:42;;;;;;;7.72;4.55;;;3.80;99.90;;;;;;5039602;28;20216;-69
2021/04/28 04:00:11;;;;;;;4.43;3.47;;;3.80;99.90;;;;;;5039475;28;20591;-72
2021/04/28 04:02:45;;;;;;;8.20;7.35;;;3.80;99.90;;;;;;5056803;28;20198;-71
2021/04/28 04:05:31;;;;;;;8.27;4.95;;;4.00;99.90;;;;;;5057061;28;20230;-71
2021/04/28 04:08:17;;;;;;;7.85;5.15;;;4.30;99.90;;;;;;5039252;28;20236;-71
2021/04/28 04:10:47;;;;;;;8.23;5.88;;;4.80;99.90;;;;;;5039001;28;20292;-70
2021/04/28 04:13:15;;;;;;;16.25;7.65;;;5.10;99.90;;;;;;5057654;28;20207;-70
2021/04/28 04:15:43;;;;;;;10.18;5.32;;;5.50;99.90;;;;;;5056905;28;20618;-70
2021/04/28 04:18:11;;;;;;;7.03;5.47;;;6.00;99.90;;;;;;5056435;28;20220;-71
2021/04/28 04:20:54;;;;;;;11.77;5.95;;;6.60;99.90;;;;;;5056809;28;20180;-71
2021/04/28 04:23:35;;;;;;;4.68;3.75;;;6.90;99.90;;;;;;5056229;28;20602;-71
2021/04/28 04:26:22;;;;;;;8.57;5.43;;;7.60;99.90;;;;;;5056427;28;20216;-72
2021/04/28 04:29:02;;;;;;;8.60;6.47;;;8.00;99.90;;;;;;5056716;28;20247;-72
2021/04/28 04:31:44;;;;;;;10.93;7.20;;;7.90;99.90;;;;;;5038326;28;20196;-72
2021/04/28 04:34:30;;;;;;;8.15;6.13;;;8.30;99.90;;;;;;5055882;28;20188;-71
2021/04/28 04:37:16;;;;;;;5.72;5.10;;;8.30;99.90;;;;;;5057614;28;20414;-71
2021/04/28 04:40:03;;;;;;;6.63;4.75;;;8.50;99.90;;;;;;5056420;28;20486;-72
2021/04/28 04:42:42;;;;;;;7.93;5.82;;;8.40;99.90;;;;;;5057255;28;20172;-71
2021/04/28 04:45:27;;;;;;;10.73;5.70;;;8.60;99.90;;;;;;5038449;28;20598;-71
2021/04/28 04:47:54;;;;;;;6.80;6.03;;;9.10;99.90;;;;;;5056989;28;20668;-71
2021/04/28 04:50:22;;;;;;;11.23;6.13;;;9.20;99.90;;;;;;5055584;28;20246;-71
2021/04/28 04:52:49;;;;;;;5.90;5.07;;;9.40;99.90;;;;;;5055808;28;20211;-71
2021/04/28 04:55:16;;;;;;;8.50;7.05;;;9.60;99.90;;;;;;5056260;28;20681;-70
2021/04/28 04:57:43;;;;;;;10.07;6.20;;;10.00;99.90;;;;;;5047822;28;20221;-71
2021/04/28 05:00:11;;;;;;;7.90;5.78;;;10.10;99.90;;;;;;5050972;28;20286;-72
2021/04/28 05:02:38;;;;;;;9.60;5.80;;;10.50;99.90;;;;;;5044329;28;20189;-71
2021/04/28 05:05:07;;;;;;;8.88;6.22;;;11.20;99.90;;;;;;5055410;28;20184;-72
2021/04/28 05:07:35;;;;;;;10.18;5.43;;;12.30;99.90;;;;;;5055153;28;20240;-72
2021/04/28 05:10:03;;;;;;;12.60;6.05;;;12.80;99.90;;;;;;5055289;28;20200;-71
2021/04/28 05:12:30;;;;;;;8.88;6.13;;;12.80;99.90;;;;;;5055756;28;20187;-72
2021/04/28 05:14:57;;;;;;;8.95;6.53;;;12.00;99.90;;;;;;5055020;28;20541;-70
2021/04/28 05:17:24;;;;;;;11.35;8.15;;;11.90;99.90;;;;;;5055170;28;20196;-73
2021/04/28 05:19:52;;;;;;;10.20;7.47;;;9.90;99.90;;;;;;5036514;28;20201;-70
2021/04/28 05:22:23;;;;;;;15.27;6.65;;;9.00;99.90;;;;;;5055443;28;20234;-71
2021/04/28 05:25:12;;;;;;;9.73;6.57;;;8.30;99.90;;;;;;5055587;28;20195;-71
2021/04/28 05:27:39;;;;;;;12.82;6.32;;;7.30;99.90;;;;;;5055832;28;20221;-70
2021/04/28 05:30:07;;;;;;;7.95;6.25;;;6.90;99.90;;;;;;5037592;28;20666;-71
2021/04/28 05:32:35;;;;;;;10.57;8.18;;;6.70;99.90;;;;;;5054574;28;20238;-72
2021/04/28 05:35:04;;;;;;;10.75;6.93;;;6.40;99.90;;;;;;5049081;28;20199;-72
2021/04/28 05:37:32;;;;;;;7.95;5.72;;;6.40;99.90;;;;;;5078064;28;20204;-71
2021/04/28 05:39:59;;;;;;;9.90;6.93;;;6.40;99.90;;;;;;5071767;28;20301;-71
2021/04/28 05:42:27;;;;;;;8.98;7.20;;;6.40;99.90;;;;;;5071196;28;20180;-72
2021/04/28 05:44:55;;;;;;;11.13;7.53;;;6.40;99.90;;;;;;5071246;28;20188;-71
2021/04/28 05:47:22;;;;;;;9.73;6.90;;;6.50;99.90;;;;;;5053444;28;20211;-71
2021/04/28 05:49:50;;;;;;;8.52;6.20;;;6.60;99.90;;;;;;5070890;28;20215;-70
2021/04/28 05:52:17;;;;;;;14.43;6.95;;;6.70;99.90;;;;;;5072655;28;20172;-70
2021/04/28 05:54:44;;;;;;;8.32;6.70;;;6.70;99.90;;;;;;5074976;28;20184;-71
2021/04/28 05:57:32;;;;;;;12.23;6.18;;;6.60;99.90;;;;;;5074310;28;20220;-71
2021/04/28 06:00:00;;;;;;;9.18;6.57;;;6.70;99.90;;;;;;5073767;28;20230;-71
2021/04/28 06:02:27;;;;;;;11.02;7.25;;;6.80;99.90;;;;;;5072663;28;20675;-71
2021/04/28 06:04:55;;;;;;;7.22;6.53;;;6.90;99.90;;;;;;5071152;28;20176;-71
2021/04/28 06:07:22;;;;;;;7.43;6.53;;;7.00;99.90;;;;;;5071493;28;20215;-71
2021/04/28 06:09:50;;;;;;;10.93;7.18;;;7.10;99.90;;;;;;5052777;28;20265;-71
2021/04/28 06:12:17;;;;;;;10.40;7.03;;;7.40;99.90;;;;;;5070946;28;20271;-70
2021/04/28 06:14:45;;;;;;;15.25;8.55;;;7.50;99.90;;;;;;5070699;28;20187;-70
2021/04/28 06:17:12;;;;;;;12.35;7.47;;;7.60;99.90;;;;;;5070838;28;20737;-71
2021/04/28 06:19:39;;;;;;;10.85;6.82;;;7.60;99.90;;;;;;5075702;28;20597;-70
2021/04/28 06:22:07;;;;;;;8.43;7.18;;;7.70;99.90;;;;;;5083072;28;20206;-71
2021/04/28 06:24:37;;;;;;;14.93;6.47;;;7.90;99.90;;;;;;5074013;28;20605;-71
2021/04/28 06:27:05;;;;;;;6.85;6.22;;;7.90;99.90;;;;;;5072259;28;20192;-71
2021/04/28 06:29:32;;;;;;;10.13;7.32;;;8.00;99.90;;;;;;5070959;28;20207;-71
2021/04/28 06:32:00;;;;;;;15.93;7.47;;;8.20;99.90;;;;;;5071064;28;20179;-72
2021/04/28 06:34:33;;;;;;;12.90;7.40;;;8.20;99.90;;;;;;5086708;22;20184;-69
2021/04/28 06:37:01;;;;;;;10.30;7.05;;;8.20;99.90;;;;;;5049650;28;20860;-69
2021/04/28 06:39:28;;;;;;;12.05;8.02;;;8.30;99.90;;;;;;5050055;28;20262;-69
2021/04/28 06:41:55;;;;;;;7.70;6.72;;;8.50;99.90;;;;;;5051425;28;20177;-66
2021/04/28 06:44:23;;;;;;;12.60;7.05;;;8.50;99.90;;;;;;5051845;28;20185;-69
2021/04/28 06:46:50;;;;;;;12.43;7.78;;;8.50;99.90;;;;;;5051445;28;20242;-69
2021/04/28 06:49:18;;;;;;;9.48;6.40;;;8.40;99.90;;;;;;5051354;28;20205;-68
2021/04/28 06:51:46;;;;;;;10.60;7.10;;;8.50;99.90;;;;;;5051287;28;20183;-70
2021/04/28 06:54:13;;;;;;;10.65;6.55;;;8.70;99.90;;;;;;5051309;28;20178;-68
2021/04/28 06:56:42;;;;;;;9.25;6.50;;;8.90;99.90;;;;;;5051313;28;20201;-65
2021/04/28 06:59:10;;;;;;;10.50;6.30;;;9.00;99.90;;;;;;5051320;28;20306;-67
2021/04/28 07:01:37;;;;;;;13.43;7.80;;;8.90;99.90;;;;;;5051320;28;20220;-68
2021/04/28 07:04:05;;;;;;;13.38;8.50;;;8.70;99.90;;;;;;5050967;28;20597;-68
2021/04/28 07:06:34;;;;;;;11.27;8.05;;;8.70;99.90;;;;;;5051463;28;20193;-68
2021/04/28 07:09:01;;;;;;;10.18;7.40;;;8.90;99.90;;;;;;5050910;28;20208;-68
2021/04/28 07:11:29;;;;;;;13.40;6.63;;;9.10;99.90;;;;;;5051088;28;20264;-69
2021/04/28 07:13:56;;;;;;;10.98;7.47;;;9.20;99.90;;;;;;5050992;28;20188;-68
2021/04/28 07:16:23;;;;;;;11.70;7.68;;;9.40;99.90;;;;;;5051033;28;20692;-68
2021/04/28 07:18:50;;;;;;;12.70;7.55;;;9.60;99.90;;;;;;5050724;28;20212;-68
2021/04/28 07:21:18;;;;;;;8.00;7.05;;;9.90;99.90;;;;;;5050530;28;20181;-69
2021/04/28 07:23:46;;;;;;;16.40;7.28;;;10.10;99.90;;;;;;5051956;28;20288;-68
2021/04/28 07:26:14;;;;;;;12.55;7.38;;;10.20;99.90;;;;;;5054076;28;20173;-68
2021/04/28 07:28:41;;;;;;;11.20;6.20;;;10.40;99.90;;;;;;5054729;28;20208;-66
2021/04/28 07:31:09;;;;;;;15.00;8.60;;;10.60;99.90;;;;;;5054175;28;20242;-68
2021/04/28 07:33:36;;;;;;;7.15;6.45;;;10.50;99.90;;;;;;5053937;28;20271;-65
2021/04/28 07:36:04;;;;;;;13.32;8.18;;;10.50;99.90;;;;;;5053629;28;20213;-67
2021/04/28 07:38:31;;;;;;;14.75;9.35;;;10.50;99.90;;;;;;5053852;28;20224;-68
2021/04/28 07:40:59;;;;;;;11.00;7.80;;;10.50;99.90;;;;;;5053711;28;20175;-72
2021/04/28 07:43:26;;;;;;;20.05;8.70;;;10.80;99.90;;;;;;5054541;28;20188;-68
2021/04/28 07:45:56;;;;;;;9.95;7.00;;;10.90;99.90;;;;;;5053708;28;20231;-68
2021/04/28 07:48:23;;;;;;;14.07;8.63;;;10.60;99.90;;;;;;5053813;28;20669;-67
2021/04/28 07:50:51;;;;;;;13.63;8.02;;;10.90;99.90;;;;;;5053559;28;20681;-67
2021/04/28 07:53:18;;;;;;;10.63;8.55;;;11.20;99.90;;;;;;5053585;28;20630;-72
2021/04/28 07:55:46;;;;;;;9.20;7.35;;;11.10;99.90;;;;;;5053680;28;20256;-68
2021/04/28 07:58:15;;;;;;;7.03;6.32;;;11.40;99.90;;;;;;5053010;28;20216;-65
2021/04/28 08:00:43;;;;;;;19.30;8.75;;;11.50;99.90;;;;;;5053034;28;20187;-66
2021/04/28 08:03:10;;;;;;;10.73;8.73;;;11.30;99.90;;;;;;5052964;28;20173;-65
2021/04/28 08:05:38;;;;;;;10.40;7.72;;;11.20;99.90;;;;;;5053320;28;20185;-66
2021/04/28 08:08:05;;;;;;;11.73;7.93;;;11.60;99.90;;;;;;5053111;28;20235;-69
2021/04/28 08:10:33;;;;;;;11.70;7.30;;;12.30;99.90;;;;;;5052704;28;20455;-69
2021/04/28 08:13:01;;;;;;;11.50;8.30;;;12.80;99.90;;;;;;5050547;28;20420;-68
2021/04/28 08:15:30;;;;;;;11.43;7.50;;;13.10;99.90;;;;;;5052291;28;20427;-68
2021/04/28 08:17:58;;;;;;;12.07;8.90;;;13.00;99.90;;;;;;5052473;28;20971;-69
2021/04/28 08:20:25;;;;;;;10.87;7.30;;;12.90;99.90;;;;;;5052631;28;20510;-69
2021/04/28 08:22:52;;;;;;;13.33;6.90;;;12.60;99.90;;;;;;5052022;28;20610;-69
2021/04/28 08:25:21;;;;;;;17.20;9.20;;;12.60;99.90;;;;;;5052410;28;20427;-69
2021/04/28 08:27:49;;;;;;;17.97;8.40;;;12.90;99.90;;;;;;5052710;28;20414;-67
2021/04/28 08:30:18;;;;;;;10.47;8.30;;;12.60;99.90;;;;;;5052577;28;20456;-67
2021/04/28 08:32:47;;;;;;;10.50;7.60;;;12.40;99.90;;;;;;5051126;28;20423;-68
2021/04/28 08:35:16;;;;;;;8.80;7.55;;;11.90;99.90;;;;;;5052108;28;20443;-68
2021/04/28 08:37:45;;;;;;;9.70;6.75;;;11.50;99.90;;;;;;5052304;28;20212;-69
2021/04/28 08:40:13;;;;;;;10.17;7.60;;;11.40;99.90;;;;;;5052034;28;20187;-66
2021/04/28 08:42:41;;;;;;;17.30;7.30;;;11.40;99.90;;;;;;5052087;28;20523;-65
2021/04/28 08:45:10;;;;;;;10.60;6.73;;;11.50;99.90;;;;;;5051841;28;20268;-69
2021/04/28 08:47:39;;;;;;;12.93;7.40;;;11.70;99.90;;;;;;5052017;28;20443;-69
2021/04/28 08:50:09;;;;;;;9.83;6.80;;;12.00;99.90;;;;;;5051815;28;20455;-66
2021/04/28 08:52:37;;;;;;;11.90;7.68;;;12.30;99.90;;;;;;5051763;28;20420;-70
2021/04/28 08:55:08;;;;;;;9.83;7.83;;;12.60;99.90;;;;;;5051371;28;20603;-69
2021/04/28 08:57:35;;;;;;;9.13;6.93;;;12.80;99.90;;;;;;5051683;28;20446;-70
2021/04/28 09:00:04;;;;;;;9.87;8.17;;;12.90;99.90;;;;;;5051341;28;20423;-68
2021/04/28 09:02:31;;;;;;;12.10;9.50;;;12.90;99.90;;;;;;5051518;28;20424;-70
2021/04/28 09:05:07;;;;;;;10.90;8.10;;;12.80;99.90;;;;;;5051332;28;20382;-65
2021/04/28 09:07:37;;;;;;;11.17;7.90;;;12.60;99.90;;;;;;5051467;28;20545;-70
2021/04/28 09:10:07;;;;;;;17.43;7.20;;;12.50;99.90;;;;;;5051332;28;20441;-69
2021/04/28 09:12:34;;;;;;;9.30;7.37;;;12.60;99.90;;;;;;5052327;28;20400;-68
2021/04/28 09:15:02;;;;;;;7.90;6.33;;;12.60;99.90;;;;;;5052247;28;20790;-68
2021/04/28 09:17:29;;;;;;;9.07;7.10;;;12.60;99.90;;;;;;5052231;28;20453;-68
2021/04/28 09:20:14;;;;;;;9.87;7.47;;;12.80;99.90;;;;;;5052221;28;20401;-71
2021/04/28 09:23:07;;;;;;;12.20;9.00;;;13.00;99.90;;;;;;5051985;28;20453;-67
2021/04/28 09:25:55;;;;;;;13.73;8.60;;;13.00;99.90;;;;;;5051967;28;20388;-66
2021/04/28 09:28:50;;;;;;;10.20;8.00;;;13.00;99.90;;;;;;5051890;28;20511;-68
2021/04/28 09:31:19;;;;;;;10.70;8.30;;;13.20;99.90;;;;;;5051502;28;20441;-68
2021/04/28 09:33:57;;;;;;;11.20;7.80;;;13.30;99.90;;;;;;5051378;28;20423;-68
2021/04/28 09:36:32;;;;;;;12.60;10.83;;;13.70;99.90;;;;;;5051432;28;20438;-68
2021/04/28 09:39:05;;;;;;;12.53;8.40;;;14.00;99.90;;;;;;5051661;28;20437;-66
2021/04/28 09:41:38;;;;;;;10.13;8.60;;;13.80;99.90;;;;;;5051062;28;20451;-67
2021/04/28 09:44:22;;;;;;;11.80;8.00;;;13.40;99.90;;;;;;5049695;28;20423;-67
2021/04/28 09:46:54;;;;;;;12.27;9.70;;;13.50;99.90;;;;;;5049269;28;20813;-66
2021/04/28 09:49:23;;;;;;;14.53;8.37;;;13.80;99.90;;;;;;5050722;28;20447;-68
2021/04/28 09:51:55;;;;;;;13.50;8.13;;;14.00;99.90;;;;;;5051077;28;20415;-68
2021/04/28 09:54:29;;;;;;;10.00;8.33;;;14.10;99.90;;;;;;5051188;28;20460;-67
2021/04/28 09:56:57;;;;;;;10.50;8.10;;;14.30;99.90;;;;;;5051092;28;20427;-68
2021/04/28 09:59:50;;;;;;;11.43;8.30;;;14.40;99.90;;;;;;5050807;28;20890;-69
2021/04/28 10:02:25;;;;;;;13.40;9.90;;;14.60;99.90;;;;;;5036329;28;20489;-68
2021/04/28 10:05:05;;;;;;;12.97;9.10;;;14.70;99.90;;;;;;5051283;28;20423;-67
2021/04/28 10:07:33;;;;;;;9.83;8.10;;;14.70;99.90;;;;;;5051313;28;20461;-70
2021/04/28 10:10:01;;;;;;;10.97;8.87;;;14.60;99.90;;;;;;5050929;28;20462;-68
2021/04/28 10:12:28;;;;;;;13.13;7.30;;;14.30;99.90;;;;;;5051071;28;20773;-66
2021/04/28 10:14:56;;;;;;;17.20;9.60;;;14.40;99.90;;;;;;5049754;28;20492;-69
2021/04/28 10:17:24;;;;;;;14.60;9.97;;;14.60;99.90;;;;;;5051285;28;20426;-70
2021/04/28 10:19:53;;;;;;;10.47;9.40;;;14.80;99.90;;;;;;5051093;28;20423;-69
2021/04/28 10:22:21;;;;;;;12.97;10.37;;;14.80;99.90;;;;;;5050784;28;20393;-67
2021/04/28 10:24:50;;;;;;;11.47;9.10;;;15.00;99.90;;;;;;5050453;28;20409;-68
2021/04/28 10:27:18;;;;;;;11.33;9.07;;;15.10;99.90;;;;;;5050350;28;20461;-67
2021/04/28 10:29:47;;;;;;;12.80;8.83;;;15.10;99.90;;;;;;5050026;28;20463;-68
2021/04/28 10:32:15;;;;;;;18.77;9.43;;;15.20;99.90;;;;;;5050692;28;20753;-68
2021/04/28 10:34:49;;;;;;;14.07;10.00;;;15.40;99.90;;;;;;5050599;28;20401;-65
2021/04/28 10:37:18;;;;;;;13.53;10.03;;;15.40;99.90;;;;;;5050960;28;20447;-69
2021/04/28 10:39:49;;;;;;;14.03;9.47;;;15.50;99.90;;;;;;5051172;28;20442;-69
2021/04/28 10:42:36;;;;;;;13.97;10.53;;;15.70;99.90;;;;;;5044831;28;20448;-69
2021/04/28 10:45:04;;;;;;;14.10;9.60;;;15.90;99.90;;;;;;5051524;28;20416;-67
2021/04/28 10:47:35;;;;;;;12.40;9.03;;;16.10;99.90;;;;;;5052266;28;20849;-69
2021/04/28 10:50:13;;;;;;;11.60;9.27;;;16.30;99.90;;;;;;5050950;28;20440;-69
2021/04/28 10:52:54;;;;;;;15.60;9.53;;;16.30;99.90;;;;;;5054011;28;20501;-68
2021/04/28 10:55:48;;;;;;;10.10;7.20;;;16.50;99.90;;;;;;5053278;28;20948;-67
2021/04/28 10:58:41;;;;;;;12.77;8.07;;;16.70;99.90;;;;;;5054556;28;20619;-67
2021/04/28 11:01:16;;;;;;;11.97;9.80;;;17.10;99.90;;;;;;5054622;28;20420;-67
2021/04/28 11:03:46;;;;;;;16.40;9.37;;;17.10;99.90;;;;;;5051677;28;20548;-67
2021/04/28 11:06:36;;;;;;;13.83;9.40;;;17.20;99.90;;;;;;5053711;28;20423;-68
2021/04/28 11:09:18;;;;;;;10.33;7.33;;;17.20;99.90;;;;;;5053724;28;20455;-70
2021/04/28 11:11:54;;;;;;;17.17;10.10;;;17.00;99.90;;;;;;5053090;28;20648;-70
2021/04/28 11:14:37;;;;;;;9.73;7.13;;;16.80;99.90;;;;;;5053358;28;20476;-66
2021/04/28 11:17:28;;;;;;;15.77;9.20;;;16.70;99.90;;;;;;5053633;28;20426;-68
2021/04/28 11:20:16;;;;;;;12.07;8.97;;;16.90;99.90;;;;;;5052169;28;20527;-70
2021/04/28 11:22:43;;;;;;;12.87;8.00;;;17.10;99.90;;;;;;5052988;28;20451;-70
2021/04/28 11:25:19;;;;;;;13.03;10.00;;;17.10;99.90;;;;;;5052739;28;20398;-68
2021/04/28 11:27:51;;;;;;;10.13;7.63;;;17.00;99.90;;;;;;5053528;28;20429;-68
2021/04/28 11:30:40;;;;;;;9.40;7.57;;;16.50;99.90;;;;;;5052879;28;20477;-68
2021/04/28 11:33:40;;;;;;;10.83;6.20;;;16.40;99.90;;;;;;5053166;28;20459;-68
2021/04/28 11:36:12;;;;;;;10.37;7.30;;;16.60;99.90;;;;;;5053198;28;20617;-68
2021/04/28 11:38:44;;;;;;;13.30;7.83;;;16.60;99.90;;;;;;5053041;28;20516;-69
2021/04/28 11:41:13;;;;;;;9.50;6.47;;;17.00;99.90;;;;;;5053133;28;20465;-69
2021/04/28 11:43:46;;;;;;;13.30;8.20;;;17.30;99.90;;;;;;5053226;28;20410;-69
2021/04/28 11:46:16;;;;;;;9.50;7.57;;;17.60;99.90;;;;;;5053044;28;20895;-67
2021/04/28 11:48:45;;;;;;;9.00;7.37;;;17.80;99.90;;;;;;5052840;28;20460;-69
2021/04/28 11:51:15;;;;;;;9.20;7.33;;;18.10;99.90;;;;;;5051126;28;20992;-68
2021/04/28 11:53:46;;;;;;;9.83;7.33;;;18.10;99.90;;;;;;5052469;28;20489;-67
2021/04/28 11:56:31;;;;;;;9.27;7.60;;;18.20;99.90;;;;;;5052025;28;20485;-70
2021/04/28 11:59:00;;;;;;;7.87;6.73;;;18.30;99.90;;;;;;5052564;28;20787;-66
2021/04/28 12:01:30;;;;;;;12.80;8.43;;;18.50;99.90;;;;;;5051720;28;20411;-67
2021/04/28 12:04:04;;;;;;;10.17;7.37;;;18.40;99.90;;;;;;5052073;28;20403;-69
2021/04/28 12:06:43;;;;;;;8.20;6.50;;;18.40;99.90;;;;;;5051755;28;21012;-69
2021/04/28 12:09:33;;;;;;;10.23;7.80;;;18.50;99.90;;;;;;5051371;28;20452;-68
2021/04/28 12:12:15;;;;;;;9.70;7.40;;;18.50;99.90;;;;;;5051230;28;20397;-67
2021/04/28 12:14:45;;;;;;;8.83;6.80;;;18.70;99.90;;;;;;5051382;28;20957;-68
2021/04/28 12:17:16;;;;;;;10.53;7.87;;;18.60;99.90;;;;;;5050194;28;20778;-65
2021/04/28 12:19:46;;;;;;;8.23;7.10;;;18.40;99.90;;;;;;5051611;28;21113;-69
2021/04/28 12:22:14;;;;;;;8.30;6.60;;;18.20;99.90;;;;;;5051371;28;20404;-68
2021/04/28 12:24:43;;;;;;;11.40;7.80;;;18.10;99.90;;;;;;5051122;28;20437;-68
2021/04/28 12:27:21;;;;;;;9.00;7.60;;;18.20;99.90;;;;;;5051662;28;20514;-67
2021/04/28 12:29:53;;;;;;;8.37;6.30;;;18.20;99.90;;;;;;5049774;28;20405;-68
2021/04/28 12:32:24;;;;;;;10.20;7.23;;;18.30;99.90;;;;;;5051195;28;20433;-68
2021/04/28 12:35:07;;;;;;;7.20;6.50;;;18.20;99.90;;;;;;5050885;28;20441;-64
2021/04/28 12:37:34;;;;;;;9.90;6.10;;;18.20;99.90;;;;;;5052411;28;20440;-69
2021/04/28 12:40:05;;;;;;;12.10;8.17;;;18.40;99.90;;;;;;5051481;28;20435;-68
2021/04/28 12:42:34;;;;;;;11.10;7.33;;;18.40;99.90;;;;;;5050520;28;20405;-65
2021/04/28 12:45:04;;;;;;;8.17;6.37;;;18.50;99.90;;;;;;5051798;28;20413;-69
2021/04/28 12:47:34;;;;;;;7.13;5.83;;;18.60;99.90;;;;;;5052178;28;20783;-68
2021/04/28 12:50:07;;;;;;;9.10;6.57;;;18.70;99.90;;;;;;5051630;28;20429;-71
2021/04/28 12:52:37;;;;;;;8.70;7.07;;;19.00;99.90;;;;;;5051395;28;20755;-69
2021/04/28 12:55:23;;;;;;;8.77;6.87;;;19.00;99.90;;;;;;5051605;28;20492;-69
2021/04/28 12:57:55;;;;;;;9.50;7.57;;;19.10;99.90;;;;;;5052220;28;20423;-70
2021/04/28 13:00:24;;;;;;;10.70;6.20;;;19.30;99.90;;;;;;5049954;28;20445;-67
2021/04/28 13:03:14;;;;;;;10.60;6.27;;;19.20;99.90;;;;;;5050818;28;20477;-68
2021/04/28 13:05:43;;;;;;;6.97;5.93;;;19.30;99.90;;;;;;5026307;28;20460;-67
2021/04/28 13:08:19;;;;;;;7.70;5.90;;;19.20;99.90;;;;;;5051992;28;20424;-67
2021/04/28 13:11:01;;;;;;;10.47;7.53;;;19.10;99.90;;;;;;5051111;28;20432;-67
2021/04/28 13:13:30;;;;;;;8.60;6.90;;;18.80;99.90;;;;;;5051184;28;20435;-65